sensor_id;sensor_type;location;lat;lon;timestamp;P1;durP1;ratioP1;P2;durP2;ratioP2
76059;SDS011;64759;52.220;5.170;2023-04-08T00:01:05;54.35;;;28.67;;
76059;SDS011;64759;52.220;5.170;2023-04-08T00:03:30;52.95;;;28.88;;
76059;SDS011;64759;52.220;5.170;2023-04-08T00:05:56;50.00;;;28.55;;
76059;SDS011;64759;52.220;5.170;2023-04-08T00:08:22;41.63;;;26.13;;
76059;SDS011;64759;52.220;5.170;2023-04-08T00:10:47;45.40;;;24.90;;
76059;SDS011;64759;52.220;5.170;2023-04-08T00:13:13;48.85;;;26.80;;
76059;SDS011;64759;52.220;5.170;2023-04-08T00:15:39;45.25;;;26.98;;
76059;SDS011;64759;52.220;5.170;2023-04-08T00:18:05;42.58;;;26.08;;
76059;SDS011;64759;52.220;5.170;2023-04-08T00:20:31;43.78;;;25.90;;
76059;SDS011;64759;52.220;5.170;2023-04-08T00:22:56;35.20;;;22.98;;
76059;SDS011;64759;52.220;5.170;2023-04-08T00:25:22;37.15;;;24.05;;
76059;SDS011;64759;52.220;5.170;2023-04-08T00:27:47;42.35;;;25.55;;
76059;SDS011;64759;52.220;5.170;2023-04-08T00:30:13;44.47;;;26.02;;
76059;SDS011;64759;52.220;5.170;2023-04-08T00:32:39;42.50;;;26.63;;
76059;SDS011;64759;52.220;5.170;2023-04-08T00:35:05;45.25;;;26.83;;
76059;SDS011;64759;52.220;5.170;2023-04-08T00:37:30;46.63;;;27.35;;
76059;SDS011;64759;52.220;5.170;2023-04-08T00:39:56;46.67;;;27.52;;
76059;SDS011;64759;52.220;5.170;2023-04-08T00:42:21;44.60;;;27.52;;
76059;SDS011;64759;52.220;5.170;2023-04-08T00:44:47;45.83;;;27.25;;
76059;SDS011;64759;52.220;5.170;2023-04-08T00:47:13;39.25;;;26.05;;
76059;SDS011;64759;52.220;5.170;2023-04-08T00:49:38;43.63;;;27.27;;
76059;SDS011;64759;52.220;5.170;2023-04-08T00:52:05;48.25;;;26.02;;
76059;SDS011;64759;52.220;5.170;2023-04-08T00:54:31;49.75;;;24.92;;
76059;SDS011;64759;52.220;5.170;2023-04-08T00:56:57;43.80;;;25.52;;
76059;SDS011;64759;52.220;5.170;2023-04-08T00:59:25;50.47;;;26.95;;
76059;SDS011;64759;52.220;5.170;2023-04-08T01:04:43;44.95;;;25.42;;
76059;SDS011;64759;52.220;5.170;2023-04-08T01:07:19;49.75;;;26.83;;
76059;SDS011;64759;52.220;5.170;2023-04-08T01:10:01;53.60;;;27.92;;
76059;SDS011;64759;52.220;5.170;2023-04-08T01:12:31;43.05;;;28.50;;
76059;SDS011;64759;52.220;5.170;2023-04-08T01:15:04;50.10;;;28.70;;
76059;SDS011;64759;52.220;5.170;2023-04-08T01:17:33;44.80;;;27.35;;
76059;SDS011;64759;52.220;5.170;2023-04-08T01:20:01;74.63;;;28.65;;
76059;SDS011;64759;52.220;5.170;2023-04-08T01:25:16;270.50;;;34.17;;
76059;SDS011;64759;52.220;5.170;2023-04-08T01:27:45;76.45;;;28.95;;
76059;SDS011;64759;52.220;5.170;2023-04-08T01:30:13;50.60;;;29.38;;
76059;SDS011;64759;52.220;5.170;2023-04-08T01:32:41;147.10;;;28.73;;
76059;SDS011;64759;52.220;5.170;2023-04-08T01:35:09;54.85;;;27.23;;
76059;SDS011;64759;52.220;5.170;2023-04-08T01:37:35;242.35;;;27.92;;
76059;SDS011;64759;52.220;5.170;2023-04-08T01:40:02;110.20;;;28.17;;
76059;SDS011;64759;52.220;5.170;2023-04-08T01:42:30;92.95;;;25.63;;
76059;SDS011;64759;52.220;5.170;2023-04-08T01:44:57;66.20;;;25.33;;
76059;SDS011;64759;52.220;5.170;2023-04-08T01:47:24;90.13;;;27.23;;
76059;SDS011;64759;52.220;5.170;2023-04-08T01:49:51;132.68;;;29.60;;
76059;SDS011;64759;52.220;5.170;2023-04-08T01:52:21;102.10;;;28.55;;
76059;SDS011;64759;52.220;5.170;2023-04-08T01:54:49;127.78;;;31.98;;
76059;SDS011;64759;52.220;5.170;2023-04-08T01:57:23;141.25;;;30.73;;
76059;SDS011;64759;52.220;5.170;2023-04-08T01:59:51;146.40;;;30.33;;
76059;SDS011;64759;52.220;5.170;2023-04-08T02:02:20;122.22;;;29.90;;
76059;SDS011;64759;52.220;5.170;2023-04-08T02:04:48;85.20;;;30.30;;
76059;SDS011;64759;52.220;5.170;2023-04-08T02:07:13;86.97;;;31.75;;
76059;SDS011;64759;52.220;5.170;2023-04-08T02:09:39;191.38;;;33.63;;
76059;SDS011;64759;52.220;5.170;2023-04-08T02:12:05;71.93;;;32.20;;
76059;SDS011;64759;52.220;5.170;2023-04-08T02:14:31;94.97;;;34.33;;
76059;SDS011;64759;52.220;5.170;2023-04-08T02:19:54;63.67;;;32.92;;
76059;SDS011;64759;52.220;5.170;2023-04-08T02:25:03;66.85;;;34.35;;
76059;SDS011;64759;52.220;5.170;2023-04-08T02:27:32;56.92;;;32.88;;
76059;SDS011;64759;52.220;5.170;2023-04-08T02:29:59;74.38;;;31.02;;
76059;SDS011;64759;52.220;5.170;2023-04-08T02:32:29;66.68;;;34.00;;
76059;SDS011;64759;52.220;5.170;2023-04-08T02:34:59;51.55;;;31.40;;
76059;SDS011;64759;52.220;5.170;2023-04-08T02:37:28;53.53;;;32.37;;
76059;SDS011;64759;52.220;5.170;2023-04-08T02:39:54;50.08;;;32.03;;
76059;SDS011;64759;52.220;5.170;2023-04-08T02:42:19;54.78;;;34.17;;
76059;SDS011;64759;52.220;5.170;2023-04-08T02:44:45;51.22;;;34.25;;
76059;SDS011;64759;52.220;5.170;2023-04-08T02:47:10;54.65;;;33.05;;
76059;SDS011;64759;52.220;5.170;2023-04-08T02:49:36;47.13;;;31.90;;
76059;SDS011;64759;52.220;5.170;2023-04-08T02:52:01;53.20;;;34.88;;
76059;SDS011;64759;52.220;5.170;2023-04-08T02:54:27;44.63;;;31.98;;
76059;SDS011;64759;52.220;5.170;2023-04-08T02:56:53;51.75;;;34.42;;
76059;SDS011;64759;52.220;5.170;2023-04-08T02:59:20;44.55;;;32.85;;
76059;SDS011;64759;52.220;5.170;2023-04-08T03:01:46;45.92;;;33.85;;
76059;SDS011;64759;52.220;5.170;2023-04-08T03:04:11;46.20;;;32.20;;
76059;SDS011;64759;52.220;5.170;2023-04-08T03:06:36;45.95;;;32.17;;
76059;SDS011;64759;52.220;5.170;2023-04-08T03:09:02;45.50;;;32.13;;
76059;SDS011;64759;52.220;5.170;2023-04-08T03:11:27;51.55;;;33.42;;
76059;SDS011;64759;52.220;5.170;2023-04-08T03:13:52;50.80;;;33.25;;
76059;SDS011;64759;52.220;5.170;2023-04-08T03:16:18;54.25;;;35.35;;
76059;SDS011;64759;52.220;5.170;2023-04-08T03:18:43;49.03;;;34.13;;
76059;SDS011;64759;52.220;5.170;2023-04-08T03:21:09;49.70;;;34.67;;
76059;SDS011;64759;52.220;5.170;2023-04-08T03:23:34;52.05;;;34.55;;
76059;SDS011;64759;52.220;5.170;2023-04-08T03:26:00;50.90;;;33.08;;
76059;SDS011;64759;52.220;5.170;2023-04-08T03:28:25;51.15;;;34.42;;
76059;SDS011;64759;52.220;5.170;2023-04-08T03:30:51;55.85;;;36.78;;
76059;SDS011;64759;52.220;5.170;2023-04-08T03:33:16;48.38;;;33.05;;
76059;SDS011;64759;52.220;5.170;2023-04-08T03:35:41;45.72;;;32.92;;
76059;SDS011;64759;52.220;5.170;2023-04-08T03:38:07;47.45;;;33.17;;
76059;SDS011;64759;52.220;5.170;2023-04-08T03:40:32;48.72;;;33.92;;
76059;SDS011;64759;52.220;5.170;2023-04-08T03:42:58;48.00;;;33.92;;
76059;SDS011;64759;52.220;5.170;2023-04-08T03:45:23;48.35;;;34.75;;
76059;SDS011;64759;52.220;5.170;2023-04-08T03:47:49;48.30;;;33.35;;
76059;SDS011;64759;52.220;5.170;2023-04-08T03:50:14;46.50;;;33.47;;
76059;SDS011;64759;52.220;5.170;2023-04-08T03:52:40;52.42;;;35.65;;
76059;SDS011;64759;52.220;5.170;2023-04-08T03:55:05;54.22;;;34.30;;
76059;SDS011;64759;52.220;5.170;2023-04-08T03:57:31;50.75;;;36.65;;
76059;SDS011;64759;52.220;5.170;2023-04-08T03:59:56;52.45;;;38.50;;
76059;SDS011;64759;52.220;5.170;2023-04-08T04:02:22;47.70;;;35.40;;
76059;SDS011;64759;52.220;5.170;2023-04-08T04:04:47;53.47;;;35.85;;
76059;SDS011;64759;52.220;5.170;2023-04-08T04:07:13;55.92;;;35.67;;
76059;SDS011;64759;52.220;5.170;2023-04-08T04:09:38;48.88;;;35.17;;
76059;SDS011;64759;52.220;5.170;2023-04-08T04:12:04;51.78;;;36.10;;
76059;SDS011;64759;52.220;5.170;2023-04-08T04:14:29;49.58;;;33.10;;
76059;SDS011;64759;52.220;5.170;2023-04-08T04:16:54;36.63;;;26.67;;
76059;SDS011;64759;52.220;5.170;2023-04-08T04:19:20;23.55;;;18.85;;
76059;SDS011;64759;52.220;5.170;2023-04-08T04:21:45;20.40;;;16.83;;
76059;SDS011;64759;52.220;5.170;2023-04-08T04:24:11;22.60;;;16.52;;
76059;SDS011;64759;52.220;5.170;2023-04-08T04:26:38;23.58;;;15.80;;
76059;SDS011;64759;52.220;5.170;2023-04-08T04:29:05;19.02;;;16.65;;
76059;SDS011;64759;52.220;5.170;2023-04-08T04:31:30;21.25;;;16.63;;
76059;SDS011;64759;52.220;5.170;2023-04-08T04:33:56;20.27;;;16.35;;
76059;SDS011;64759;52.220;5.170;2023-04-08T04:36:21;21.45;;;17.15;;
76059;SDS011;64759;52.220;5.170;2023-04-08T04:38:48;19.63;;;17.05;;
76059;SDS011;64759;52.220;5.170;2023-04-08T04:41:15;21.75;;;16.75;;
76059;SDS011;64759;52.220;5.170;2023-04-08T04:43:40;18.80;;;15.93;;
76059;SDS011;64759;52.220;5.170;2023-04-08T04:46:06;18.35;;;15.50;;
76059;SDS011;64759;52.220;5.170;2023-04-08T04:48:33;21.17;;;16.23;;
76059;SDS011;64759;52.220;5.170;2023-04-08T04:50:59;20.13;;;15.82;;
76059;SDS011;64759;52.220;5.170;2023-04-08T04:53:28;22.90;;;17.52;;
76059;SDS011;64759;52.220;5.170;2023-04-08T04:55:55;16.38;;;14.60;;
76059;SDS011;64759;52.220;5.170;2023-04-08T04:58:21;19.13;;;15.30;;
76059;SDS011;64759;52.220;5.170;2023-04-08T05:00:46;17.60;;;15.07;;
76059;SDS011;64759;52.220;5.170;2023-04-08T05:03:12;21.42;;;16.05;;
76059;SDS011;64759;52.220;5.170;2023-04-08T05:05:37;22.17;;;15.57;;
76059;SDS011;64759;52.220;5.170;2023-04-08T05:08:03;24.83;;;17.08;;
76059;SDS011;64759;52.220;5.170;2023-04-08T05:10:29;18.75;;;15.00;;
76059;SDS011;64759;52.220;5.170;2023-04-08T05:12:54;19.58;;;15.13;;
76059;SDS011;64759;52.220;5.170;2023-04-08T05:15:20;19.80;;;16.88;;
76059;SDS011;64759;52.220;5.170;2023-04-08T05:17:45;20.63;;;17.48;;
76059;SDS011;64759;52.220;5.170;2023-04-08T05:20:12;19.63;;;16.63;;
76059;SDS011;64759;52.220;5.170;2023-04-08T05:22:38;20.63;;;16.88;;
76059;SDS011;64759;52.220;5.170;2023-04-08T05:25:04;20.63;;;15.88;;
76059;SDS011;64759;52.220;5.170;2023-04-08T05:27:30;17.88;;;14.18;;
76059;SDS011;64759;52.220;5.170;2023-04-08T05:29:56;20.33;;;14.98;;
76059;SDS011;64759;52.220;5.170;2023-04-08T05:32:21;20.05;;;14.65;;
76059;SDS011;64759;52.220;5.170;2023-04-08T05:34:47;17.45;;;15.00;;
76059;SDS011;64759;52.220;5.170;2023-04-08T05:37:13;16.27;;;14.32;;
76059;SDS011;64759;52.220;5.170;2023-04-08T05:39:38;16.15;;;13.90;;
76059;SDS011;64759;52.220;5.170;2023-04-08T05:42:04;15.52;;;13.80;;
76059;SDS011;64759;52.220;5.170;2023-04-08T05:44:29;17.95;;;14.85;;
76059;SDS011;64759;52.220;5.170;2023-04-08T05:46:55;15.77;;;12.85;;
76059;SDS011;64759;52.220;5.170;2023-04-08T05:49:21;15.43;;;12.93;;
76059;SDS011;64759;52.220;5.170;2023-04-08T05:51:47;19.13;;;13.32;;
76059;SDS011;64759;52.220;5.170;2023-04-08T05:54:12;15.02;;;12.60;;
76059;SDS011;64759;52.220;5.170;2023-04-08T05:56:38;13.98;;;11.80;;
76059;SDS011;64759;52.220;5.170;2023-04-08T05:59:05;13.27;;;11.82;;
76059;SDS011;64759;52.220;5.170;2023-04-08T06:01:30;14.18;;;11.52;;
76059;SDS011;64759;52.220;5.170;2023-04-08T06:03:56;13.73;;;10.30;;
76059;SDS011;64759;52.220;5.170;2023-04-08T06:06:22;12.90;;;10.32;;
76059;SDS011;64759;52.220;5.170;2023-04-08T06:08:47;14.30;;;10.25;;
76059;SDS011;64759;52.220;5.170;2023-04-08T06:11:13;12.50;;;10.45;;
76059;SDS011;64759;52.220;5.170;2023-04-08T06:13:39;10.90;;;9.48;;
76059;SDS011;64759;52.220;5.170;2023-04-08T06:16:10;11.38;;;9.68;;
76059;SDS011;64759;52.220;5.170;2023-04-08T06:18:37;14.02;;;9.40;;
76059;SDS011;64759;52.220;5.170;2023-04-08T06:21:03;10.88;;;9.23;;
76059;SDS011;64759;52.220;5.170;2023-04-08T06:23:29;11.13;;;9.23;;
76059;SDS011;64759;52.220;5.170;2023-04-08T06:25:54;12.00;;;9.15;;
76059;SDS011;64759;52.220;5.170;2023-04-08T06:28:20;12.73;;;8.63;;
76059;SDS011;64759;52.220;5.170;2023-04-08T06:30:45;10.80;;;8.98;;
76059;SDS011;64759;52.220;5.170;2023-04-08T06:33:10;11.52;;;8.82;;
76059;SDS011;64759;52.220;5.170;2023-04-08T06:35:37;10.98;;;8.60;;
76059;SDS011;64759;52.220;5.170;2023-04-08T06:38:03;12.10;;;9.90;;
76059;SDS011;64759;52.220;5.170;2023-04-08T06:40:29;12.70;;;8.70;;
76059;SDS011;64759;52.220;5.170;2023-04-08T06:42:55;11.82;;;9.70;;
76059;SDS011;64759;52.220;5.170;2023-04-08T06:45:31;13.60;;;8.43;;
76059;SDS011;64759;52.220;5.170;2023-04-08T06:47:57;16.42;;;8.95;;
76059;SDS011;64759;52.220;5.170;2023-04-08T06:50:22;12.32;;;9.00;;
76059;SDS011;64759;52.220;5.170;2023-04-08T06:52:48;11.10;;;8.60;;
76059;SDS011;64759;52.220;5.170;2023-04-08T06:55:15;11.63;;;9.38;;
76059;SDS011;64759;52.220;5.170;2023-04-08T06:57:40;11.15;;;8.73;;
76059;SDS011;64759;52.220;5.170;2023-04-08T07:00:06;10.13;;;8.40;;
76059;SDS011;64759;52.220;5.170;2023-04-08T07:02:32;10.63;;;9.18;;
76059;SDS011;64759;52.220;5.170;2023-04-08T07:04:58;9.38;;;8.00;;
76059;SDS011;64759;52.220;5.170;2023-04-08T07:07:24;8.60;;;7.07;;
76059;SDS011;64759;52.220;5.170;2023-04-08T07:09:49;9.40;;;8.38;;
76059;SDS011;64759;52.220;5.170;2023-04-08T07:12:15;11.55;;;7.25;;
76059;SDS011;64759;52.220;5.170;2023-04-08T07:14:41;10.00;;;7.10;;
76059;SDS011;64759;52.220;5.170;2023-04-08T07:17:06;10.48;;;7.82;;
76059;SDS011;64759;52.220;5.170;2023-04-08T07:19:31;11.38;;;7.45;;
76059;SDS011;64759;52.220;5.170;2023-04-08T07:21:57;9.95;;;7.47;;
76059;SDS011;64759;52.220;5.170;2023-04-08T07:24:22;11.95;;;7.28;;
76059;SDS011;64759;52.220;5.170;2023-04-08T07:26:48;9.93;;;8.18;;
76059;SDS011;64759;52.220;5.170;2023-04-08T07:29:13;9.30;;;7.53;;
76059;SDS011;64759;52.220;5.170;2023-04-08T07:31:41;14.20;;;7.93;;
76059;SDS011;64759;52.220;5.170;2023-04-08T07:34:07;15.45;;;7.88;;
76059;SDS011;64759;52.220;5.170;2023-04-08T07:36:33;10.90;;;7.68;;
76059;SDS011;64759;52.220;5.170;2023-04-08T07:38:58;9.32;;;7.63;;
76059;SDS011;64759;52.220;5.170;2023-04-08T07:41:23;9.30;;;7.68;;
76059;SDS011;64759;52.220;5.170;2023-04-08T07:43:49;10.35;;;7.30;;
76059;SDS011;64759;52.220;5.170;2023-04-08T07:46:14;13.82;;;7.25;;
76059;SDS011;64759;52.220;5.170;2023-04-08T07:48:40;13.65;;;7.07;;
76059;SDS011;64759;52.220;5.170;2023-04-08T07:51:06;10.43;;;7.32;;
76059;SDS011;64759;52.220;5.170;2023-04-08T07:53:32;11.77;;;7.70;;
76059;SDS011;64759;52.220;5.170;2023-04-08T07:55:58;14.07;;;7.95;;
76059;SDS011;64759;52.220;5.170;2023-04-08T07:58:24;9.25;;;7.53;;
76059;SDS011;64759;52.220;5.170;2023-04-08T08:00:49;8.43;;;7.07;;
76059;SDS011;64759;52.220;5.170;2023-04-08T08:03:15;10.02;;;7.03;;
76059;SDS011;64759;52.220;5.170;2023-04-08T08:05:41;10.70;;;7.45;;
76059;SDS011;64759;52.220;5.170;2023-04-08T08:08:07;9.27;;;7.50;;
76059;SDS011;64759;52.220;5.170;2023-04-08T08:10:35;8.57;;;7.20;;
76059;SDS011;64759;52.220;5.170;2023-04-08T08:13:01;8.63;;;7.05;;
76059;SDS011;64759;52.220;5.170;2023-04-08T08:15:27;8.30;;;7.35;;
76059;SDS011;64759;52.220;5.170;2023-04-08T08:17:52;10.00;;;7.15;;
76059;SDS011;64759;52.220;5.170;2023-04-08T08:20:17;7.70;;;6.63;;
76059;SDS011;64759;52.220;5.170;2023-04-08T08:22:43;11.85;;;6.90;;
76059;SDS011;64759;52.220;5.170;2023-04-08T08:25:09;14.40;;;7.18;;
76059;SDS011;64759;52.220;5.170;2023-04-08T08:27:35;11.07;;;7.13;;
76059;SDS011;64759;52.220;5.170;2023-04-08T08:30:01;9.27;;;6.90;;
76059;SDS011;64759;52.220;5.170;2023-04-08T08:32:28;11.10;;;7.22;;
76059;SDS011;64759;52.220;5.170;2023-04-08T08:34:53;8.10;;;6.05;;
76059;SDS011;64759;52.220;5.170;2023-04-08T08:37:19;8.93;;;7.55;;
76059;SDS011;64759;52.220;5.170;2023-04-08T08:39:44;10.43;;;6.20;;
76059;SDS011;64759;52.220;5.170;2023-04-08T08:42:22;10.30;;;6.73;;
76059;SDS011;64759;52.220;5.170;2023-04-08T08:44:50;10.73;;;7.03;;
76059;SDS011;64759;52.220;5.170;2023-04-08T08:47:15;8.63;;;7.03;;
76059;SDS011;64759;52.220;5.170;2023-04-08T08:49:41;8.38;;;6.57;;
76059;SDS011;64759;52.220;5.170;2023-04-08T08:52:07;7.93;;;7.13;;
76059;SDS011;64759;52.220;5.170;2023-04-08T08:54:34;12.68;;;8.98;;
76059;SDS011;64759;52.220;5.170;2023-04-08T08:56:59;9.75;;;7.15;;
76059;SDS011;64759;52.220;5.170;2023-04-08T08:59:25;7.82;;;6.63;;
76059;SDS011;64759;52.220;5.170;2023-04-08T09:01:50;10.23;;;7.40;;
76059;SDS011;64759;52.220;5.170;2023-04-08T09:04:16;8.32;;;7.07;;
76059;SDS011;64759;52.220;5.170;2023-04-08T09:06:47;9.57;;;6.85;;
76059;SDS011;64759;52.220;5.170;2023-04-08T09:09:15;7.47;;;5.97;;
76059;SDS011;64759;52.220;5.170;2023-04-08T09:11:42;7.55;;;6.35;;
76059;SDS011;64759;52.220;5.170;2023-04-08T09:14:24;8.38;;;7.57;;
76059;SDS011;64759;52.220;5.170;2023-04-08T09:16:50;11.40;;;7.53;;
76059;SDS011;64759;52.220;5.170;2023-04-08T09:19:16;7.80;;;6.90;;
76059;SDS011;64759;52.220;5.170;2023-04-08T09:21:43;9.98;;;7.47;;
76059;SDS011;64759;52.220;5.170;2023-04-08T09:24:09;14.15;;;8.43;;
76059;SDS011;64759;52.220;5.170;2023-04-08T09:26:52;7.68;;;6.88;;
76059;SDS011;64759;52.220;5.170;2023-04-08T09:29:18;10.75;;;7.10;;
76059;SDS011;64759;52.220;5.170;2023-04-08T09:31:47;9.43;;;6.90;;
76059;SDS011;64759;52.220;5.170;2023-04-08T09:34:18;9.50;;;7.07;;
76059;SDS011;64759;52.220;5.170;2023-04-08T09:36:45;15.88;;;7.25;;
76059;SDS011;64759;52.220;5.170;2023-04-08T09:39:13;11.18;;;7.00;;
76059;SDS011;64759;52.220;5.170;2023-04-08T09:41:38;8.25;;;7.38;;
76059;SDS011;64759;52.220;5.170;2023-04-08T09:44:11;7.55;;;6.85;;
76059;SDS011;64759;52.220;5.170;2023-04-08T09:49:28;11.90;;;8.25;;
76059;SDS011;64759;52.220;5.170;2023-04-08T09:51:58;9.27;;;7.43;;
76059;SDS011;64759;52.220;5.170;2023-04-08T09:54:40;10.43;;;7.72;;
76059;SDS011;64759;52.220;5.170;2023-04-08T09:57:38;8.77;;;7.00;;
76059;SDS011;64759;52.220;5.170;2023-04-08T10:00:23;8.30;;;7.38;;
76059;SDS011;64759;52.220;5.170;2023-04-08T10:03:00;10.48;;;7.70;;
76059;SDS011;64759;52.220;5.170;2023-04-08T10:05:35;11.48;;;7.53;;
76059;SDS011;64759;52.220;5.170;2023-04-08T10:08:05;8.32;;;7.43;;
76059;SDS011;64759;52.220;5.170;2023-04-08T10:10:32;8.70;;;6.97;;
76059;SDS011;64759;52.220;5.170;2023-04-08T10:13:01;9.38;;;7.50;;
76059;SDS011;64759;52.220;5.170;2023-04-08T10:15:28;8.50;;;7.57;;
76059;SDS011;64759;52.220;5.170;2023-04-08T10:23:01;8.75;;;7.65;;
76059;SDS011;64759;52.220;5.170;2023-04-08T10:25:28;9.83;;;7.07;;
76059;SDS011;64759;52.220;5.170;2023-04-08T10:27:58;8.63;;;7.10;;
76059;SDS011;64759;52.220;5.170;2023-04-08T10:32:57;11.07;;;7.60;;
76059;SDS011;64759;52.220;5.170;2023-04-08T10:35:30;9.43;;;7.47;;
76059;SDS011;64759;52.220;5.170;2023-04-08T10:37:59;10.90;;;7.47;;
76059;SDS011;64759;52.220;5.170;2023-04-08T10:40:25;7.63;;;6.72;;
76059;SDS011;64759;52.220;5.170;2023-04-08T10:42:54;12.95;;;8.20;;
76059;SDS011;64759;52.220;5.170;2023-04-08T10:45:23;9.88;;;7.38;;
76059;SDS011;64759;52.220;5.170;2023-04-08T10:47:48;7.63;;;6.82;;
76059;SDS011;64759;52.220;5.170;2023-04-08T10:50:14;9.60;;;7.32;;
76059;SDS011;64759;52.220;5.170;2023-04-08T10:52:51;8.43;;;7.20;;
76059;SDS011;64759;52.220;5.170;2023-04-08T10:55:22;9.90;;;7.40;;
76059;SDS011;64759;52.220;5.170;2023-04-08T10:57:49;8.25;;;7.07;;
76059;SDS011;64759;52.220;5.170;2023-04-08T11:00:36;12.85;;;6.75;;
76059;SDS011;64759;52.220;5.170;2023-04-08T11:03:09;11.07;;;7.32;;
76059;SDS011;64759;52.220;5.170;2023-04-08T11:05:36;11.50;;;6.80;;
76059;SDS011;64759;52.220;5.170;2023-04-08T11:08:03;8.27;;;7.10;;
76059;SDS011;64759;52.220;5.170;2023-04-08T11:10:30;9.20;;;7.05;;
76059;SDS011;64759;52.220;5.170;2023-04-08T11:13:00;9.10;;;7.03;;
76059;SDS011;64759;52.220;5.170;2023-04-08T11:15:27;9.50;;;7.38;;
76059;SDS011;64759;52.220;5.170;2023-04-08T11:17:54;8.20;;;7.25;;
76059;SDS011;64759;52.220;5.170;2023-04-08T11:20:20;9.40;;;7.50;;
76059;SDS011;64759;52.220;5.170;2023-04-08T11:22:46;10.77;;;7.88;;
76059;SDS011;64759;52.220;5.170;2023-04-08T11:25:13;12.18;;;7.60;;
76059;SDS011;64759;52.220;5.170;2023-04-08T11:27:38;9.93;;;7.18;;
76059;SDS011;64759;52.220;5.170;2023-04-08T11:30:05;8.55;;;7.18;;
76059;SDS011;64759;52.220;5.170;2023-04-08T11:32:32;9.73;;;7.43;;
76059;SDS011;64759;52.220;5.170;2023-04-08T11:34:59;10.02;;;7.50;;
76059;SDS011;64759;52.220;5.170;2023-04-08T11:37:26;13.55;;;7.72;;
76059;SDS011;64759;52.220;5.170;2023-04-08T11:40:00;9.88;;;7.43;;
76059;SDS011;64759;52.220;5.170;2023-04-08T11:42:29;10.60;;;7.35;;
76059;SDS011;64759;52.220;5.170;2023-04-08T11:44:56;8.45;;;7.45;;
76059;SDS011;64759;52.220;5.170;2023-04-08T11:47:32;13.75;;;8.60;;
76059;SDS011;64759;52.220;5.170;2023-04-08T11:49:58;9.73;;;7.20;;
76059;SDS011;64759;52.220;5.170;2023-04-08T11:55:11;12.55;;;7.78;;
76059;SDS011;64759;52.220;5.170;2023-04-08T11:57:37;10.95;;;8.00;;
76059;SDS011;64759;52.220;5.170;2023-04-08T12:00:04;8.95;;;7.32;;
76059;SDS011;64759;52.220;5.170;2023-04-08T12:02:35;11.27;;;7.80;;
76059;SDS011;64759;52.220;5.170;2023-04-08T12:05:01;13.90;;;8.32;;
76059;SDS011;64759;52.220;5.170;2023-04-08T12:07:27;11.35;;;8.30;;
76059;SDS011;64759;52.220;5.170;2023-04-08T12:09:53;12.75;;;9.65;;
76059;SDS011;64759;52.220;5.170;2023-04-08T12:12:18;12.25;;;7.63;;
76059;SDS011;64759;52.220;5.170;2023-04-08T12:14:44;11.77;;;8.30;;
76059;SDS011;64759;52.220;5.170;2023-04-08T12:17:09;13.30;;;8.95;;
76059;SDS011;64759;52.220;5.170;2023-04-08T12:19:35;8.70;;;7.30;;
76059;SDS011;64759;52.220;5.170;2023-04-08T12:22:00;14.68;;;7.93;;
76059;SDS011;64759;52.220;5.170;2023-04-08T12:24:26;12.80;;;9.07;;
76059;SDS011;64759;52.220;5.170;2023-04-08T12:26:51;12.43;;;8.25;;
76059;SDS011;64759;52.220;5.170;2023-04-08T12:29:17;11.90;;;9.10;;
76059;SDS011;64759;52.220;5.170;2023-04-08T12:31:42;14.82;;;8.73;;
76059;SDS011;64759;52.220;5.170;2023-04-08T12:34:07;16.15;;;8.93;;
76059;SDS011;64759;52.220;5.170;2023-04-08T12:36:33;11.65;;;7.72;;
76059;SDS011;64759;52.220;5.170;2023-04-08T12:39:00;11.23;;;8.05;;
76059;SDS011;64759;52.220;5.170;2023-04-08T12:41:25;10.85;;;8.15;;
76059;SDS011;64759;52.220;5.170;2023-04-08T12:43:51;14.30;;;7.85;;
76059;SDS011;64759;52.220;5.170;2023-04-08T12:46:17;11.95;;;8.02;;
76059;SDS011;64759;52.220;5.170;2023-04-08T12:48:42;16.45;;;8.88;;
76059;SDS011;64759;52.220;5.170;2023-04-08T12:51:09;14.48;;;8.98;;
76059;SDS011;64759;52.220;5.170;2023-04-08T12:53:34;14.10;;;9.32;;
76059;SDS011;64759;52.220;5.170;2023-04-08T12:56:00;13.40;;;8.77;;
76059;SDS011;64759;52.220;5.170;2023-04-08T12:58:25;10.52;;;7.88;;
76059;SDS011;64759;52.220;5.170;2023-04-08T13:00:51;14.68;;;9.32;;
76059;SDS011;64759;52.220;5.170;2023-04-08T13:03:16;15.98;;;9.82;;
76059;SDS011;64759;52.220;5.170;2023-04-08T13:05:42;18.70;;;10.25;;
76059;SDS011;64759;52.220;5.170;2023-04-08T13:08:08;19.02;;;9.70;;
76059;SDS011;64759;52.220;5.170;2023-04-08T13:10:35;13.40;;;9.63;;
76059;SDS011;64759;52.220;5.170;2023-04-08T13:13:00;15.45;;;8.68;;
76059;SDS011;64759;52.220;5.170;2023-04-08T13:15:26;14.25;;;9.80;;
76059;SDS011;64759;52.220;5.170;2023-04-08T13:17:52;13.07;;;9.80;;
76059;SDS011;64759;52.220;5.170;2023-04-08T13:20:18;13.60;;;9.85;;
76059;SDS011;64759;52.220;5.170;2023-04-08T13:22:43;13.25;;;9.65;;
76059;SDS011;64759;52.220;5.170;2023-04-08T13:25:09;12.13;;;9.52;;
76059;SDS011;64759;52.220;5.170;2023-04-08T13:27:34;12.65;;;10.25;;
76059;SDS011;64759;52.220;5.170;2023-04-08T13:30:00;16.58;;;10.15;;
76059;SDS011;64759;52.220;5.170;2023-04-08T13:32:25;12.15;;;9.65;;
76059;SDS011;64759;52.220;5.170;2023-04-08T13:34:52;13.23;;;9.73;;
76059;SDS011;64759;52.220;5.170;2023-04-08T13:37:17;15.18;;;9.55;;
76059;SDS011;64759;52.220;5.170;2023-04-08T13:39:42;10.07;;;9.02;;
76059;SDS011;64759;52.220;5.170;2023-04-08T13:42:08;13.25;;;10.38;;
76059;SDS011;64759;52.220;5.170;2023-04-08T13:44:33;13.82;;;9.52;;
76059;SDS011;64759;52.220;5.170;2023-04-08T13:46:59;13.90;;;9.32;;
76059;SDS011;64759;52.220;5.170;2023-04-08T13:49:24;11.32;;;9.40;;
76059;SDS011;64759;52.220;5.170;2023-04-08T13:51:50;14.23;;;10.75;;
76059;SDS011;64759;52.220;5.170;2023-04-08T13:54:15;11.98;;;9.70;;
76059;SDS011;64759;52.220;5.170;2023-04-08T13:56:41;13.77;;;9.98;;
76059;SDS011;64759;52.220;5.170;2023-04-08T13:59:06;13.13;;;10.63;;
76059;SDS011;64759;52.220;5.170;2023-04-08T14:01:31;12.32;;;9.88;;
76059;SDS011;64759;52.220;5.170;2023-04-08T14:03:57;13.15;;;9.65;;
76059;SDS011;64759;52.220;5.170;2023-04-08T14:06:22;13.73;;;9.38;;
76059;SDS011;64759;52.220;5.170;2023-04-08T14:08:48;12.35;;;11.02;;
76059;SDS011;64759;52.220;5.170;2023-04-08T14:11:13;14.38;;;9.85;;
76059;SDS011;64759;52.220;5.170;2023-04-08T14:13:39;11.80;;;10.57;;
76059;SDS011;64759;52.220;5.170;2023-04-08T14:16:04;12.07;;;10.27;;
76059;SDS011;64759;52.220;5.170;2023-04-08T14:18:30;17.20;;;11.52;;
76059;SDS011;64759;52.220;5.170;2023-04-08T14:20:55;15.68;;;10.57;;
76059;SDS011;64759;52.220;5.170;2023-04-08T14:23:21;15.27;;;11.75;;
76059;SDS011;64759;52.220;5.170;2023-04-08T14:25:47;15.73;;;11.98;;
76059;SDS011;64759;52.220;5.170;2023-04-08T14:28:12;14.05;;;11.88;;
76059;SDS011;64759;52.220;5.170;2023-04-08T14:30:37;14.52;;;12.23;;
76059;SDS011;64759;52.220;5.170;2023-04-08T14:33:03;14.40;;;11.10;;
76059;SDS011;64759;52.220;5.170;2023-04-08T14:35:29;15.95;;;13.25;;
76059;SDS011;64759;52.220;5.170;2023-04-08T14:37:55;14.18;;;12.15;;
76059;SDS011;64759;52.220;5.170;2023-04-08T14:40:21;14.27;;;12.27;;
76059;SDS011;64759;52.220;5.170;2023-04-08T14:42:47;18.42;;;13.05;;
76059;SDS011;64759;52.220;5.170;2023-04-08T14:45:14;15.30;;;12.65;;
76059;SDS011;64759;52.220;5.170;2023-04-08T14:47:40;19.75;;;13.70;;
76059;SDS011;64759;52.220;5.170;2023-04-08T14:50:06;17.48;;;13.90;;
76059;SDS011;64759;52.220;5.170;2023-04-08T14:52:31;17.27;;;13.23;;